createdAt,value
2018-08-19T00:01:00.063Z,93.90
2018-08-19T00:03:28.095Z,93.80
2018-08-19T00:05:56.142Z,93.80
2018-08-19T00:08:24.183Z,93.80
2018-08-19T00:11:05.146Z,93.70
2018-08-19T00:13:33.728Z,93.70
2018-08-19T00:16:01.877Z,93.30
2018-08-19T00:18:29.940Z,93.10
2018-08-19T00:20:58.227Z,93.30
2018-08-19T00:23:29.272Z,93.50
2018-08-19T00:25:57.324Z,93.40
2018-08-19T00:28:25.409Z,93.20
2018-08-19T00:30:53.636Z,93.30
2018-08-19T00:33:21.745Z,93.60
2018-08-19T00:35:49.988Z,93.30
2018-08-19T00:38:18.068Z,93.00
2018-08-19T00:40:46.115Z,92.60
2018-08-19T00:43:14.365Z,92.70
2018-08-19T00:45:42.424Z,92.70
2018-08-19T00:48:11.968Z,92.60
2018-08-19T00:50:40.581Z,92.80
2018-08-19T00:53:09.916Z,92.60
2018-08-19T00:55:43.447Z,92.60
2018-08-19T00:58:15.200Z,92.80
2018-08-19T01:00:43.706Z,92.80
2018-08-19T01:03:12.136Z,92.80
2018-08-19T01:05:40.227Z,92.70
2018-08-19T01:08:09.358Z,92.60
2018-08-19T01:10:37.513Z,92.50
2018-08-19T01:13:05.584Z,92.70
2018-08-19T01:15:33.692Z,92.60
2018-08-19T01:18:01.780Z,92.60
2018-08-19T01:20:29.810Z,92.80
2018-08-19T01:22:57.868Z,93.00
2018-08-19T01:25:25.997Z,93.00
2018-08-19T01:27:54.035Z,93.60
2018-08-19T01:30:25.846Z,93.30
2018-08-19T01:32:54.178Z,93.50
2018-08-19T01:35:31.576Z,93.00
2018-08-19T01:37:59.816Z,93.00
2018-08-19T01:40:27.903Z,92.80
2018-08-19T01:42:55.958Z,92.90
2018-08-19T01:45:24.168Z,93.40
2018-08-19T01:47:52.687Z,93.30
2018-08-19T01:50:20.974Z,93.30
2018-08-19T01:52:49.246Z,93.40
2018-08-19T01:55:18.146Z,93.80
2018-08-19T01:57:48.324Z,93.50
2018-08-19T02:00:17.101Z,93.50
2018-08-19T02:02:56.546Z,93.50
2018-08-19T02:05:24.976Z,93.40
2018-08-19T02:07:55.372Z,93.40
2018-08-19T02:10:24.089Z,93.20
2018-08-19T02:12:53.514Z,93.00
2018-08-19T02:15:22.957Z,93.00
2018-08-19T02:17:59.045Z,93.40
2018-08-19T02:20:40.158Z,93.50
2018-08-19T02:23:11.725Z,93.50
2018-08-19T02:25:43.927Z,93.40
2018-08-19T02:28:12.545Z,93.40
2018-08-19T02:30:50.244Z,93.50
2018-08-19T02:33:18.308Z,93.70
2018-08-19T02:35:51.347Z,93.80
2018-08-19T02:38:19.652Z,93.70
2018-08-19T02:40:51.270Z,93.20
2018-08-19T02:43:19.985Z,93.50
2018-08-19T02:45:48.237Z,93.80
2018-08-19T02:48:16.268Z,94.00
2018-08-19T02:50:44.332Z,93.90
2018-08-19T02:53:12.392Z,93.90
2018-08-19T02:55:40.457Z,93.80
2018-08-19T02:58:27.007Z,93.90
2018-08-19T03:00:55.118Z,94.10
2018-08-19T03:03:23.168Z,94.10
2018-08-19T03:06:00.981Z,93.90
2018-08-19T03:08:29.695Z,93.90
2018-08-19T03:10:58.207Z,94.10
2018-08-19T03:13:26.484Z,94.30
2018-08-19T03:15:56.066Z,94.60
2018-08-19T03:18:24.485Z,94.60
2018-08-19T03:20:52.885Z,94.80
2018-08-19T03:23:21.576Z,94.80
2018-08-19T03:25:49.936Z,95.00
2018-08-19T03:28:18.352Z,95.20
2018-08-19T03:30:52.445Z,95.10
2018-08-19T03:33:20.532Z,95.10
2018-08-19T03:35:49.226Z,95.00
2018-08-19T03:38:17.690Z,94.90
2018-08-19T03:40:46.026Z,94.80
2018-08-19T03:43:14.381Z,95.30
2018-08-19T03:45:42.836Z,95.30
2018-08-19T03:48:10.865Z,95.30
2018-08-19T03:50:38.916Z,95.40
2018-08-19T03:53:07.091Z,95.50
2018-08-19T03:55:37.668Z,95.40
2018-08-19T03:58:07.036Z,95.40
2018-08-19T04:00:40.850Z,95.40
2018-08-19T04:03:16.661Z,95.60
2018-08-19T04:05:49.239Z,95.60
2018-08-19T04:08:17.381Z,95.40
2018-08-19T04:10:46.410Z,95.50
2018-08-19T04:13:27.284Z,95.60
2018-08-19T04:15:57.675Z,95.90
2018-08-19T04:18:35.364Z,96.40
2018-08-19T04:21:04.973Z,96.20
2018-08-19T04:23:34.101Z,96.20
2018-08-19T04:26:02.930Z,96.00
2018-08-19T04:28:34.961Z,95.90
2018-08-19T04:31:04.325Z,95.80
2018-08-19T04:34:35.896Z,96.10
2018-08-19T04:37:05.127Z,95.60
2018-08-19T04:39:33.222Z,95.30
2018-08-19T04:42:01.337Z,95.30
2018-08-19T04:44:29.555Z,95.10
2018-08-19T04:46:57.665Z,95.10
2018-08-19T04:49:25.775Z,95.00
2018-08-19T04:51:53.871Z,95.10
2018-08-19T04:54:21.941Z,95.10
2018-08-19T04:56:50.068Z,95.10
2018-08-19T04:59:18.198Z,95.00
2018-08-19T05:01:46.288Z,94.70
2018-08-19T05:04:14.345Z,94.50
2018-08-19T05:06:42.466Z,94.30
2018-08-19T05:09:10.670Z,94.00
2018-08-19T05:11:38.825Z,93.80
2018-08-19T05:14:06.965Z,93.90
2018-08-19T05:16:35.143Z,93.00
2018-08-19T05:19:04.953Z,92.90
2018-08-19T05:21:33.043Z,93.00
2018-08-19T05:24:01.430Z,92.90
2018-08-19T05:26:29.529Z,92.70
2018-08-19T05:29:09.304Z,92.70
2018-08-19T05:31:46.725Z,92.80
2018-08-19T05:34:21.201Z,93.20
2018-08-19T05:36:49.840Z,92.50
2018-08-19T05:39:18.367Z,92.50
2018-08-19T05:42:00.647Z,92.50
2018-08-19T05:44:31.624Z,91.90
2018-08-19T05:47:06.939Z,91.80
2018-08-19T05:49:36.614Z,91.60
2018-08-19T05:52:10.919Z,91.40
2018-08-19T05:54:44.564Z,91.20
2018-08-19T05:57:12.887Z,90.90
2018-08-19T05:59:41.004Z,90.80
2018-08-19T06:02:09.088Z,90.80
2018-08-19T06:04:37.218Z,90.60
2018-08-19T06:07:08.136Z,90.40
2018-08-19T06:09:36.444Z,90.50
2018-08-19T06:12:05.205Z,90.20
2018-08-19T06:14:33.642Z,89.00
2018-08-19T06:17:03.623Z,88.40
2018-08-19T06:19:32.784Z,88.10
2018-08-19T06:22:01.043Z,87.50
2018-08-19T06:24:29.994Z,86.40
2018-08-19T06:26:58.193Z,87.20
2018-08-19T06:29:44.813Z,84.80
2018-08-19T06:32:20.621Z,83.50
2018-08-19T06:34:51.259Z,84.00
2018-08-19T06:37:20.813Z,82.40
2018-08-19T06:39:49.998Z,82.20
2018-08-19T06:42:18.243Z,83.40
2018-08-19T06:44:46.587Z,84.50
2018-08-19T06:47:14.774Z,84.50
2018-08-19T06:49:48.432Z,84.30
2018-08-19T06:52:17.064Z,84.20
2018-08-19T06:54:45.448Z,83.90
2018-08-19T06:57:13.699Z,83.60
2018-08-19T06:59:41.894Z,82.60
2018-08-19T07:02:13.660Z,82.10
2018-08-19T07:04:43.791Z,82.10
2018-08-19T07:07:13.994Z,81.30
2018-08-19T07:09:42.288Z,80.50
2018-08-19T07:12:14.477Z,79.40
2018-08-19T07:14:45.708Z,78.40
2018-08-19T07:17:17.064Z,76.40
2018-08-19T07:19:45.216Z,75.20
2018-08-19T07:22:16.743Z,74.50
2018-08-19T07:24:45.047Z,75.00
2018-08-19T07:27:13.274Z,75.10
2018-08-19T07:29:41.407Z,75.70
2018-08-19T07:32:10.528Z,75.50
2018-08-19T07:41:39.145Z,75.90
2018-08-19T07:44:07.307Z,73.90
2018-08-19T07:46:35.499Z,74.70
2018-08-19T07:49:03.620Z,73.40
2018-08-19T07:51:31.826Z,72.80
2018-08-19T07:54:00.090Z,72.10
2018-08-19T07:56:28.272Z,72.10
2018-08-19T07:59:02.016Z,70.30
2018-08-19T08:01:30.260Z,70.20
2018-08-19T08:09:54.541Z,68.30
2018-08-19T08:12:22.759Z,68.20
2018-08-19T08:14:52.893Z,67.30
2018-08-19T08:17:21.986Z,68.10
2018-08-19T08:19:55.493Z,68.80
2018-08-19T08:22:26.520Z,64.80
2018-08-19T08:24:54.796Z,63.40
2018-08-19T08:27:22.975Z,62.60
2018-08-19T08:29:51.129Z,62.80
2018-08-19T08:32:19.237Z,62.50
2018-08-19T08:34:47.362Z,62.10
2018-08-19T08:37:15.506Z,62.10
2018-08-19T08:39:43.646Z,62.90
2018-08-19T08:42:11.732Z,59.60
2018-08-19T08:44:39.839Z,58.20
2018-08-19T08:47:12.468Z,57.80
2018-08-19T08:49:46.612Z,57.40
2018-08-19T08:52:21.908Z,57.30
2018-08-19T08:54:52.299Z,56.30
2018-08-19T08:57:21.269Z,55.60
2018-08-19T08:59:50.147Z,53.70
2018-08-19T09:02:18.356Z,50.10
2018-08-19T09:04:46.589Z,46.50
2018-08-19T09:07:14.967Z,44.60
2018-08-19T09:09:44.607Z,43.70
2018-08-19T09:12:17.005Z,44.70
2018-08-19T09:14:48.798Z,45.20
2018-08-19T09:17:17.225Z,44.50
2018-08-19T09:20:32.547Z,42.40
2018-08-19T09:23:01.915Z,41.00
2018-08-19T09:25:34.307Z,41.40
2018-08-19T09:28:05.627Z,42.30
2018-08-19T09:30:52.877Z,41.00
2018-08-19T09:33:21.127Z,39.90
2018-08-19T09:35:57.444Z,39.50
2018-08-19T09:38:29.041Z,39.40
2018-08-19T09:40:57.175Z,39.50
2018-08-19T09:43:31.528Z,39.40
2018-08-19T09:46:04.037Z,38.90
2018-08-19T09:48:32.252Z,38.60
2018-08-19T09:51:06.048Z,36.80
2018-08-19T09:53:35.263Z,37.40
2018-08-19T09:56:08.553Z,36.00
2018-08-19T09:58:37.004Z,36.00
2018-08-19T10:01:10.878Z,34.90
2018-08-19T10:03:39.101Z,34.30
2018-08-19T10:06:07.585Z,35.60
2018-08-19T10:08:35.809Z,32.90
2018-08-19T10:11:03.924Z,32.30
2018-08-19T10:13:32.081Z,31.70
2018-08-19T10:16:00.296Z,32.10
2018-08-19T10:18:28.443Z,33.60
2018-08-19T10:20:58.907Z,31.90
2018-08-19T10:23:27.164Z,31.90
2018-08-19T10:25:56.658Z,32.20
2018-08-19T10:28:24.834Z,32.50
2018-08-19T10:30:58.229Z,32.60
2018-08-19T10:33:26.364Z,31.30
2018-08-19T10:35:57.903Z,32.10
2018-08-19T10:38:26.146Z,32.10
2018-08-19T10:41:03.690Z,32.00
2018-08-19T10:43:31.981Z,33.10
2018-08-19T10:46:00.104Z,32.00
2018-08-19T10:48:28.220Z,29.80
2018-08-19T10:50:56.462Z,29.80
2018-08-19T10:53:27.248Z,32.20
2018-08-19T10:56:01.411Z,32.30
2018-08-19T10:58:29.705Z,32.00
2018-08-19T11:00:57.865Z,30.00
2018-08-19T11:03:26.144Z,30.90
2018-08-19T11:05:55.605Z,31.80
2018-08-19T11:08:23.680Z,30.00
2018-08-19T11:10:51.757Z,29.40
2018-08-19T11:13:23.938Z,29.70
2018-08-19T11:15:54.079Z,30.00
2018-08-19T11:18:40.879Z,29.30
2018-08-19T11:21:13.878Z,29.80
2018-08-19T11:23:43.281Z,30.20
2018-08-19T11:26:11.704Z,30.90
2018-08-19T11:28:44.067Z,32.40
2018-08-19T11:31:19.375Z,32.80
2018-08-19T11:33:48.031Z,31.00
2018-08-19T11:36:16.377Z,33.40
2018-08-19T11:38:48.353Z,32.20
2018-08-19T11:41:16.899Z,32.40
2018-08-19T11:43:46.267Z,33.10
2018-08-19T11:46:14.411Z,32.80
2018-08-19T11:51:48.888Z,31.30
2018-08-19T11:54:18.296Z,29.80
2018-08-19T11:57:01.547Z,29.60
2018-08-19T11:59:35.319Z,30.90
2018-08-19T12:02:09.256Z,32.10
2018-08-19T12:04:37.335Z,32.10
2018-08-19T12:07:05.496Z,33.00
2018-08-19T12:09:38.374Z,30.90
2018-08-19T12:12:06.450Z,30.80
2018-08-19T12:14:36.421Z,31.70
2018-08-19T12:17:13.232Z,33.50
2018-08-19T12:19:42.780Z,33.30
2018-08-19T12:22:11.264Z,31.30
2018-08-19T12:24:42.294Z,33.50
2018-08-19T12:27:12.900Z,31.40
2018-08-19T12:29:42.058Z,31.30
2018-08-19T12:32:28.554Z,31.40
2018-08-19T12:34:59.018Z,31.50
2018-08-19T12:37:28.505Z,31.40
2018-08-19T12:39:57.205Z,32.70
2018-08-19T12:42:25.960Z,31.90
2018-08-19T12:45:02.782Z,31.10
2018-08-19T12:47:30.920Z,30.50
2018-08-19T12:50:01.534Z,29.40
2018-08-19T12:52:30.906Z,29.30
2018-08-19T12:55:06.932Z,29.30
2018-08-19T12:57:36.043Z,31.20
2018-08-19T13:00:18.921Z,30.10
2018-08-19T13:02:48.658Z,30.40
2018-08-19T13:05:17.778Z,29.90
2018-08-19T13:09:10.679Z,30.20
2018-08-19T13:11:38.763Z,31.30
2018-08-19T13:14:06.865Z,32.00
2018-08-19T13:16:34.991Z,30.30
2018-08-19T13:19:03.155Z,32.00
2018-08-19T13:21:31.555Z,31.60
2018-08-19T13:23:59.888Z,31.10
2018-08-19T13:26:28.198Z,31.50
2018-08-19T13:28:56.384Z,35.10
2018-08-19T13:31:30.201Z,36.10
2018-08-19T13:33:58.362Z,36.00
2018-08-19T13:36:26.449Z,36.20
2018-08-19T13:38:54.548Z,36.90
2018-08-19T13:41:22.660Z,37.50
2018-08-19T13:43:50.836Z,37.30
2018-08-19T13:46:18.933Z,37.20
2018-08-19T13:48:47.029Z,38.10
2018-08-19T13:51:15.124Z,38.70
2018-08-19T13:53:43.185Z,40.00
2018-08-19T13:56:11.295Z,39.60
2018-08-19T13:58:39.342Z,40.00
2018-08-19T14:01:07.405Z,39.50
2018-08-19T14:03:35.471Z,38.70
2018-08-19T14:06:03.581Z,38.90
2018-08-19T14:08:31.668Z,37.50
2018-08-19T14:10:59.771Z,37.40
2018-08-19T14:13:27.927Z,37.60
2018-08-19T14:15:56.067Z,36.10
2018-08-19T14:18:25.104Z,34.90
2018-08-19T14:20:53.301Z,35.50
2018-08-19T14:23:21.668Z,35.00
2018-08-19T14:25:49.956Z,34.30
2018-08-19T14:28:18.217Z,35.40
2018-08-19T14:30:46.569Z,35.40
2018-08-19T14:33:14.961Z,35.40
2018-08-19T14:35:43.195Z,36.00
2018-08-19T14:38:11.459Z,35.70
2018-08-19T14:40:39.741Z,36.20
2018-08-19T14:43:08.101Z,34.90
2018-08-19T14:45:36.240Z,35.00
2018-08-19T14:48:04.906Z,36.40
2018-08-19T14:50:33.688Z,37.10
2018-08-19T14:53:01.930Z,35.20
2018-08-19T14:55:30.036Z,35.00
2018-08-19T14:57:59.441Z,35.40
2018-08-19T15:00:27.768Z,35.40
2018-08-19T15:02:56.295Z,36.20
2018-08-19T15:05:24.728Z,37.40
2018-08-19T15:07:53.157Z,36.30
2018-08-19T15:10:23.917Z,36.60
2018-08-19T15:12:52.708Z,36.20
2018-08-19T15:15:20.824Z,35.10
2018-08-19T15:17:56.255Z,34.70
2018-08-19T15:20:31.670Z,36.00
2018-08-19T15:23:11.010Z,34.60
2018-08-19T15:25:39.087Z,35.60
2018-08-19T15:28:07.302Z,36.80
2018-08-19T15:30:36.029Z,37.20
2018-08-19T15:33:04.325Z,37.00
2018-08-19T15:35:32.303Z,38.70
2018-08-19T15:38:00.448Z,39.60
2018-08-19T15:40:36.228Z,41.00
2018-08-19T15:43:04.413Z,40.80
2018-08-19T15:45:32.483Z,41.10
2018-08-19T15:48:00.583Z,40.50
2018-08-19T15:50:28.651Z,42.20
2018-08-19T15:52:57.533Z,43.80
2018-08-19T15:55:25.598Z,43.60
2018-08-19T15:57:53.680Z,43.10
2018-08-19T16:00:21.806Z,43.40
2018-08-19T16:02:49.936Z,41.70
2018-08-19T16:05:18.249Z,42.90
2018-08-19T16:07:47.036Z,40.80
2018-08-19T16:10:16.060Z,41.10
2018-08-19T16:12:48.497Z,41.60
2018-08-19T16:15:23.735Z,42.40
2018-08-19T16:17:53.477Z,41.90
2018-08-19T16:20:21.687Z,43.80
2018-08-19T16:22:49.936Z,43.10
2018-08-19T16:25:18.773Z,42.80
2018-08-19T16:27:46.963Z,42.90
2018-08-19T16:30:15.135Z,43.40
2018-08-19T16:32:43.505Z,42.40
2018-08-19T16:35:11.633Z,42.10
2018-08-19T16:37:39.810Z,43.50
2018-08-19T16:40:10.265Z,43.00
2018-08-19T16:42:38.747Z,41.40
2018-08-19T16:45:07.234Z,42.20
2018-08-19T16:47:35.752Z,42.70
2018-08-19T16:50:04.371Z,42.40
2018-08-19T16:52:32.394Z,42.10
2018-08-19T16:55:00.473Z,43.00
2018-08-19T16:57:28.591Z,42.30
2018-08-19T16:59:56.653Z,42.80
2018-08-19T17:02:25.044Z,42.30
2018-08-19T17:04:53.103Z,42.60
2018-08-19T17:07:21.209Z,42.60
2018-08-19T17:09:49.464Z,42.50
2018-08-19T17:12:17.455Z,42.40
2018-08-19T17:14:45.540Z,42.00
2018-08-19T17:17:13.704Z,42.30
2018-08-19T17:19:41.780Z,42.00
2018-08-19T17:22:10.034Z,42.00
2018-08-19T17:24:38.161Z,42.40
2018-08-19T17:27:11.662Z,43.30
2018-08-19T17:29:40.065Z,42.90
2018-08-19T17:32:08.169Z,42.90
2018-08-19T17:34:39.312Z,42.80
2018-08-19T17:37:08.666Z,42.80
2018-08-19T17:39:36.802Z,43.10
2018-08-19T17:42:05.153Z,43.00
2018-08-19T17:44:33.306Z,43.60
2018-08-19T17:47:01.364Z,43.40
2018-08-19T17:49:31.213Z,43.60
2018-08-19T17:52:00.169Z,43.90
2018-08-19T17:54:29.464Z,44.00
2018-08-19T17:56:58.750Z,44.50
2018-08-19T17:59:26.986Z,45.40
2018-08-19T18:01:54.941Z,46.00
2018-08-19T18:04:26.801Z,46.10
2018-08-19T18:06:54.899Z,46.70
2018-08-19T18:09:23.012Z,46.80
2018-08-19T18:12:03.225Z,47.00
2018-08-19T18:14:31.298Z,47.50
2018-08-19T18:16:59.372Z,48.00
2018-08-19T18:19:27.455Z,48.40
2018-08-19T18:21:55.572Z,48.30
2018-08-19T18:24:23.648Z,48.80
2018-08-19T18:26:51.707Z,49.10
2018-08-19T18:29:19.819Z,49.50
2018-08-19T18:31:49.639Z,50.10
2018-08-19T18:34:17.751Z,50.80
2018-08-19T18:36:45.796Z,51.20
2018-08-19T18:46:12.701Z,52.60
2018-08-19T18:48:40.863Z,52.80
2018-08-19T18:51:09.001Z,53.10
2018-08-19T18:53:37.712Z,54.10
2018-08-19T18:56:05.871Z,54.50
2018-08-19T18:58:34.042Z,54.30
2018-08-19T19:01:02.131Z,54.10
2018-08-19T19:03:30.377Z,54.30
2018-08-19T19:05:58.533Z,54.70
2018-08-19T19:08:26.611Z,54.80
2018-08-19T19:10:57.525Z,54.90
2018-08-19T19:13:26.536Z,54.90
2018-08-19T19:15:54.728Z,55.30
2018-08-19T19:18:22.877Z,56.10
2018-08-19T19:20:56.470Z,56.00
2018-08-19T19:23:29.889Z,56.10
2018-08-19T19:25:58.284Z,57.20
2018-08-19T19:28:26.339Z,58.20
2018-08-19T19:31:00.804Z,58.60
2018-08-19T19:33:28.932Z,59.40
2018-08-19T19:36:02.428Z,59.90
2018-08-19T19:38:30.745Z,59.70
2018-08-19T19:41:05.117Z,60.90
2018-08-19T19:43:33.197Z,61.50
2018-08-19T19:46:01.538Z,62.10
2018-08-19T19:48:29.704Z,63.60
2018-08-19T19:50:57.823Z,62.80
2018-08-19T19:53:26.238Z,63.10
2018-08-19T19:55:58.190Z,63.90
2018-08-19T19:58:26.358Z,64.80
2018-08-19T20:00:55.609Z,65.70
2018-08-19T20:03:24.392Z,65.40
2018-08-19T20:05:52.559Z,65.80
2018-08-19T20:08:23.781Z,65.40
2018-08-19T20:10:52.021Z,65.50
2018-08-19T20:13:20.393Z,66.50
2018-08-19T20:15:48.578Z,66.30
2018-08-19T20:18:16.926Z,68.40
2018-08-19T20:20:45.245Z,69.20
2018-08-19T20:23:19.070Z,69.60
2018-08-19T20:25:47.304Z,70.00
2018-08-19T20:28:15.604Z,70.10
2018-08-19T20:30:43.800Z,71.20
2018-08-19T20:33:18.605Z,71.50
2018-08-19T20:35:46.935Z,72.50
2018-08-19T20:38:15.053Z,72.40
2018-08-19T20:40:43.282Z,71.60
2018-08-19T20:43:17.648Z,70.70
2018-08-19T20:45:46.228Z,70.90
2018-08-19T20:48:16.800Z,71.20
2018-08-19T20:50:45.250Z,73.00
2018-08-19T20:53:13.525Z,72.40
2018-08-19T20:55:41.701Z,71.70
2018-08-19T20:58:10.109Z,72.50
2018-08-19T21:00:38.464Z,73.10
2018-08-19T21:03:07.032Z,73.90
2018-08-19T21:05:35.216Z,74.20
2018-08-19T21:08:13.505Z,73.50
2018-08-19T21:10:42.936Z,73.70
2018-08-19T21:13:12.536Z,73.60
2018-08-19T21:15:42.286Z,75.00
2018-08-19T21:18:11.065Z,74.60
2018-08-19T21:20:39.441Z,73.80
2018-08-19T21:23:07.824Z,73.60
2018-08-19T21:25:46.237Z,73.20
2018-08-19T21:28:14.693Z,73.20
2018-08-19T21:30:42.990Z,73.40
2018-08-19T21:33:11.230Z,74.00
2018-08-19T21:35:44.728Z,74.30
2018-08-19T21:38:12.814Z,73.40
2018-08-19T21:40:41.060Z,73.50
2018-08-19T21:43:09.691Z,73.30
2018-08-19T21:45:38.339Z,73.90
2018-08-19T21:48:10.597Z,74.20
2018-08-19T21:50:39.268Z,74.40
2018-08-19T21:53:09.643Z,75.30
2018-08-19T21:55:39.114Z,76.50
2018-08-19T21:58:07.432Z,76.10
2018-08-19T22:00:37.193Z,75.70
2018-08-19T22:03:13.480Z,76.30
2018-08-19T22:05:41.618Z,76.20
2018-08-19T22:08:09.864Z,76.60
2018-08-19T22:10:37.945Z,76.80
2018-08-19T22:13:05.991Z,77.10
2018-08-19T22:15:38.145Z,76.70
2018-08-19T22:18:07.684Z,76.60
2018-08-19T22:20:36.325Z,76.70
2018-08-19T22:23:04.544Z,76.70
2018-08-19T22:25:32.628Z,76.90
2018-08-19T22:28:00.879Z,77.40
2018-08-19T22:30:29.826Z,78.10
2018-08-19T22:32:58.381Z,78.80
2018-08-19T22:35:26.461Z,80.10
2018-08-19T22:37:54.544Z,80.50
2018-08-19T22:40:29.013Z,81.00
2018-08-19T22:42:57.086Z,81.60
2018-08-19T22:45:25.152Z,80.80
2018-08-19T22:47:54.244Z,81.10
2018-08-19T22:50:22.344Z,80.50
2018-08-19T22:52:50.481Z,80.60
2018-08-19T22:55:19.220Z,79.70
2018-08-19T22:57:47.309Z,79.40
2018-08-19T23:00:19.599Z,79.40
2018-08-19T23:02:47.717Z,80.20
2018-08-19T23:05:15.796Z,80.50
2018-08-19T23:07:43.912Z,80.20
2018-08-19T23:10:12.008Z,80.90
2018-08-19T23:12:40.745Z,81.00
2018-08-19T23:15:44.160Z,81.40
2018-08-19T23:18:12.265Z,81.20
2018-08-19T23:20:40.316Z,81.30
2018-08-19T23:23:08.369Z,83.00
2018-08-19T23:25:36.480Z,82.70
2018-08-19T23:28:04.593Z,82.50
2018-08-19T23:30:32.635Z,83.00
2018-08-19T23:33:00.751Z,83.90
2018-08-19T23:35:28.857Z,84.40
2018-08-19T23:37:56.978Z,84.40
2018-08-19T23:40:25.049Z,84.80
2018-08-19T23:42:53.197Z,85.50
2018-08-19T23:45:21.280Z,85.70
2018-08-19T23:47:49.381Z,86.10
2018-08-19T23:50:17.469Z,86.10
2018-08-19T23:52:45.652Z,86.10
2018-08-19T23:55:13.792Z,86.70
2018-08-19T23:57:41.861Z,86.50
